KEQA

Details ICAO KEQA
Name CAPTAIN JACK THOMAS EL DORADO
Region United States
Timezone America/Chicago (UTC-6.0)
Plans Departing 0
Arriving 1
Stats Elevation 1,378 ft / 420 m (AMSL)
Location 37.774222° -96.817599°
Runways 2
Magnetic Variation 3.255° E
Sunrise 2017-12-13 13:35:40 UTC / 2017-12-13 07:35:40 Local
Sunset 2017-12-13 23:10:21 UTC / 2017-12-13 17:10:21 Local
Advertisement - Login to hide

Runways

ID Width Length Bearing (true) Bearing (mag) Surface Threshold Offset Overrun Length
04 75 ft / 23 m 4,208 ft / 1,283 m 43.21° 39.96° Asphalt 0 ft / 0 m 0 ft / 0 m
15 75 ft / 23 m 4,204 ft / 1,281 m 158.83° 155.58° Concrete 0 ft / 0 m 0 ft / 0 m
22 75 ft / 23 m 4,208 ft / 1,283 m 223.22° 219.97° Asphalt 0 ft / 0 m 0 ft / 0 m
33 75 ft / 23 m 4,204 ft / 1,281 m 338.83° 335.58° Concrete 0 ft / 0 m 0 ft / 0 m

Map

Weather


0- 5 10 15 20 25 30 35+ Temperature / ° C

Clouds and Precipitation
Forecast for 2017-12-13 12:00 UTC. Updated 3 minutes ago

Ground ~20,000 ft ~40,000 ft Winds

METAR

KEQA 130715Z AUTO 20009KT 10SM CLR 03/M02 A2991 RMK AO2

TAF

Not found

Frequencies

Unicom 122.80 MHz CTAF/UNICOM
Approach 134.80 MHz WICHITA APP/DEP
Warning: Do not use this data for real-world aviation or navigation. No guarantee of current accuracy is given.